sensor_id;sensor_type;location;lat;lon;timestamp;P1;durP1;ratioP1;P2;durP2;ratioP2
65206;SDS011;58477;48.072;11.970;2024-03-23T00:52:29;5.30;;;4.28;;
65206;SDS011;58477;48.072;11.970;2024-03-23T00:54:54;6.20;;;4.10;;
65206;SDS011;58477;48.072;11.970;2024-03-23T00:57:20;4.55;;;3.92;;
65206;SDS011;58477;48.072;11.970;2024-03-23T00:59:46;5.93;;;4.05;;
65206;SDS011;58477;48.072;11.970;2024-03-23T01:02:11;7.00;;;3.67;;
65206;SDS011;58477;48.072;11.970;2024-03-23T01:04:36;5.82;;;3.85;;
65206;SDS011;58477;48.072;11.970;2024-03-23T01:07:02;10.10;;;4.20;;
65206;SDS011;58477;48.072;11.970;2024-03-23T01:09:27;7.07;;;3.70;;
65206;SDS011;58477;48.072;11.970;2024-03-23T01:11:52;5.95;;;4.40;;
65206;SDS011;58477;48.072;11.970;2024-03-23T01:14:18;5.10;;;3.80;;
65206;SDS011;58477;48.072;11.970;2024-03-23T01:16:43;6.00;;;4.20;;
65206;SDS011;58477;48.072;11.970;2024-03-23T01:19:09;5.80;;;4.25;;
65206;SDS011;58477;48.072;11.970;2024-03-23T01:21:34;4.22;;;3.50;;
65206;SDS011;58477;48.072;11.970;2024-03-23T01:24:00;3.95;;;3.35;;
65206;SDS011;58477;48.072;11.970;2024-03-23T01:26:26;5.55;;;3.65;;
65206;SDS011;58477;48.072;11.970;2024-03-23T01:28:53;4.72;;;3.65;;
65206;SDS011;58477;48.072;11.970;2024-03-23T01:31:19;4.07;;;3.67;;
65206;SDS011;58477;48.072;11.970;2024-03-23T01:33:44;6.95;;;4.35;;
65206;SDS011;58477;48.072;11.970;2024-03-23T01:36:10;7.13;;;4.60;;
65206;SDS011;58477;48.072;11.970;2024-03-23T01:38:40;5.18;;;3.90;;
65206;SDS011;58477;48.072;11.970;2024-03-23T01:41:05;7.70;;;5.03;;
65206;SDS011;58477;48.072;11.970;2024-03-23T01:43:31;5.30;;;3.97;;
65206;SDS011;58477;48.072;11.970;2024-03-23T01:45:59;5.75;;;4.13;;
65206;SDS011;58477;48.072;11.970;2024-03-23T01:48:25;4.80;;;4.20;;
65206;SDS011;58477;48.072;11.970;2024-03-23T01:50:56;5.00;;;4.20;;
65206;SDS011;58477;48.072;11.970;2024-03-23T01:53:22;5.63;;;4.10;;
65206;SDS011;58477;48.072;11.970;2024-03-23T01:55:48;5.25;;;4.47;;
65206;SDS011;58477;48.072;11.970;2024-03-23T01:58:15;5.25;;;4.20;;
65206;SDS011;58477;48.072;11.970;2024-03-23T02:00:41;4.82;;;4.03;;
65206;SDS011;58477;48.072;11.970;2024-03-23T02:03:25;5.97;;;3.83;;
65206;SDS011;58477;48.072;11.970;2024-03-23T02:05:52;4.78;;;4.07;;
65206;SDS011;58477;48.072;11.970;2024-03-23T02:08:20;4.72;;;4.18;;
65206;SDS011;58477;48.072;11.970;2024-03-23T02:10:47;6.00;;;4.32;;
65206;SDS011;58477;48.072;11.970;2024-03-23T02:13:15;8.60;;;4.32;;
65206;SDS011;58477;48.072;11.970;2024-03-23T02:15:41;5.40;;;4.30;;
65206;SDS011;58477;48.072;11.970;2024-03-23T02:18:07;9.18;;;4.10;;
65206;SDS011;58477;48.072;11.970;2024-03-23T02:20:33;6.05;;;4.47;;
65206;SDS011;58477;48.072;11.970;2024-03-23T02:22:59;5.07;;;4.18;;
65206;SDS011;58477;48.072;11.970;2024-03-23T02:25:24;5.72;;;3.80;;
65206;SDS011;58477;48.072;11.970;2024-03-23T02:27:50;5.13;;;3.72;;
65206;SDS011;58477;48.072;11.970;2024-03-23T02:30:15;7.40;;;4.22;;
65206;SDS011;58477;48.072;11.970;2024-03-23T02:32:40;7.72;;;4.13;;
65206;SDS011;58477;48.072;11.970;2024-03-23T02:35:06;5.35;;;4.00;;
65206;SDS011;58477;48.072;11.970;2024-03-23T02:37:31;6.75;;;4.43;;
65206;SDS011;58477;48.072;11.970;2024-03-23T02:39:57;6.93;;;3.55;;
65206;SDS011;58477;48.072;11.970;2024-03-23T02:42:23;5.10;;;3.55;;
65206;SDS011;58477;48.072;11.970;2024-03-23T02:44:49;5.05;;;3.45;;
65206;SDS011;58477;48.072;11.970;2024-03-23T02:47:14;7.32;;;3.53;;
65206;SDS011;58477;48.072;11.970;2024-03-23T02:49:40;4.38;;;3.47;;
65206;SDS011;58477;48.072;11.970;2024-03-23T02:52:05;5.90;;;3.55;;
65206;SDS011;58477;48.072;11.970;2024-03-23T02:54:31;6.55;;;3.10;;
65206;SDS011;58477;48.072;11.970;2024-03-23T02:56:56;5.00;;;3.35;;
65206;SDS011;58477;48.072;11.970;2024-03-23T02:59:21;4.32;;;3.55;;
65206;SDS011;58477;48.072;11.970;2024-03-23T03:01:47;4.78;;;3.38;;
65206;SDS011;58477;48.072;11.970;2024-03-23T03:04:12;4.85;;;3.90;;
65206;SDS011;58477;48.072;11.970;2024-03-23T03:06:38;4.82;;;3.58;;
65206;SDS011;58477;48.072;11.970;2024-03-23T03:09:03;4.57;;;3.45;;
65206;SDS011;58477;48.072;11.970;2024-03-23T03:11:29;3.35;;;2.92;;
65206;SDS011;58477;48.072;11.970;2024-03-23T03:13:55;7.65;;;3.03;;
65206;SDS011;58477;48.072;11.970;2024-03-23T03:16:20;2.90;;;2.60;;
65206;SDS011;58477;48.072;11.970;2024-03-23T03:18:45;3.75;;;2.50;;
65206;SDS011;58477;48.072;11.970;2024-03-23T03:21:11;2.65;;;2.17;;
65206;SDS011;58477;48.072;11.970;2024-03-23T03:23:38;4.18;;;3.00;;
65206;SDS011;58477;48.072;11.970;2024-03-23T03:26:06;2.92;;;2.47;;
65206;SDS011;58477;48.072;11.970;2024-03-23T03:28:32;4.15;;;2.40;;
65206;SDS011;58477;48.072;11.970;2024-03-23T03:30:58;4.55;;;2.83;;
65206;SDS011;58477;48.072;11.970;2024-03-23T03:33:24;3.83;;;2.45;;
65206;SDS011;58477;48.072;11.970;2024-03-23T03:35:49;2.40;;;2.17;;
65206;SDS011;58477;48.072;11.970;2024-03-23T03:38:17;6.05;;;3.05;;
65206;SDS011;58477;48.072;11.970;2024-03-23T03:40:43;2.97;;;2.67;;
65206;SDS011;58477;48.072;11.970;2024-03-23T03:43:08;3.20;;;2.55;;
65206;SDS011;58477;48.072;11.970;2024-03-23T03:45:34;3.53;;;2.50;;
65206;SDS011;58477;48.072;11.970;2024-03-23T03:47:59;2.58;;;2.28;;
65206;SDS011;58477;48.072;11.970;2024-03-23T03:50:25;3.67;;;2.83;;
65206;SDS011;58477;48.072;11.970;2024-03-23T03:52:50;3.13;;;2.65;;
65206;SDS011;58477;48.072;11.970;2024-03-23T03:55:16;3.08;;;2.67;;
65206;SDS011;58477;48.072;11.970;2024-03-23T03:57:41;4.40;;;2.78;;
65206;SDS011;58477;48.072;11.970;2024-03-23T04:00:07;5.75;;;2.90;;
65206;SDS011;58477;48.072;11.970;2024-03-23T04:02:39;8.10;;;2.63;;
65206;SDS011;58477;48.072;11.970;2024-03-23T04:05:05;3.13;;;2.75;;
65206;SDS011;58477;48.072;11.970;2024-03-23T04:07:31;2.55;;;2.35;;
65206;SDS011;58477;48.072;11.970;2024-03-23T04:09:56;3.75;;;2.92;;
65206;SDS011;58477;48.072;11.970;2024-03-23T04:12:23;3.40;;;2.70;;
65206;SDS011;58477;48.072;11.970;2024-03-23T04:14:49;2.97;;;2.47;;
65206;SDS011;58477;48.072;11.970;2024-03-23T04:17:14;3.53;;;2.85;;
65206;SDS011;58477;48.072;11.970;2024-03-23T04:19:39;4.07;;;2.65;;
65206;SDS011;58477;48.072;11.970;2024-03-23T04:22:05;3.03;;;2.47;;
65206;SDS011;58477;48.072;11.970;2024-03-23T04:24:30;3.55;;;2.47;;
65206;SDS011;58477;48.072;11.970;2024-03-23T04:26:55;3.03;;;2.17;;
65206;SDS011;58477;48.072;11.970;2024-03-23T04:29:21;2.05;;;1.95;;
65206;SDS011;58477;48.072;11.970;2024-03-23T04:31:46;2.80;;;2.03;;
65206;SDS011;58477;48.072;11.970;2024-03-23T04:34:12;7.47;;;2.22;;
65206;SDS011;58477;48.072;11.970;2024-03-23T04:36:38;4.10;;;1.77;;
65206;SDS011;58477;48.072;11.970;2024-03-23T04:39:03;2.88;;;2.17;;
65206;SDS011;58477;48.072;11.970;2024-03-23T04:41:29;3.17;;;2.13;;
65206;SDS011;58477;48.072;11.970;2024-03-23T04:43:55;3.75;;;2.15;;
65206;SDS011;58477;48.072;11.970;2024-03-23T04:46:20;2.78;;;1.90;;
65206;SDS011;58477;48.072;11.970;2024-03-23T04:48:46;4.40;;;2.20;;
65206;SDS011;58477;48.072;11.970;2024-03-23T04:51:20;4.18;;;2.22;;
65206;SDS011;58477;48.072;11.970;2024-03-23T04:53:48;2.08;;;1.90;;
65206;SDS011;58477;48.072;11.970;2024-03-23T04:56:14;3.55;;;2.05;;
65206;SDS011;58477;48.072;11.970;2024-03-23T04:58:41;3.67;;;1.58;;
65206;SDS011;58477;48.072;11.970;2024-03-23T05:01:06;2.92;;;1.95;;
65206;SDS011;58477;48.072;11.970;2024-03-23T05:03:31;5.90;;;1.60;;
65206;SDS011;58477;48.072;11.970;2024-03-23T05:05:57;1.65;;;1.52;;
65206;SDS011;58477;48.072;11.970;2024-03-23T05:08:23;1.60;;;1.50;;
65206;SDS011;58477;48.072;11.970;2024-03-23T05:10:48;4.25;;;1.80;;
65206;SDS011;58477;48.072;11.970;2024-03-23T05:13:14;3.80;;;1.73;;
65206;SDS011;58477;48.072;11.970;2024-03-23T05:15:39;2.13;;;1.70;;
65206;SDS011;58477;48.072;11.970;2024-03-23T05:18:05;2.58;;;1.80;;
65206;SDS011;58477;48.072;11.970;2024-03-23T05:20:31;2.80;;;1.85;;
65206;SDS011;58477;48.072;11.970;2024-03-23T05:22:57;4.00;;;1.92;;
65206;SDS011;58477;48.072;11.970;2024-03-23T05:25:22;4.93;;;2.00;;
65206;SDS011;58477;48.072;11.970;2024-03-23T05:27:48;1.90;;;1.60;;
65206;SDS011;58477;48.072;11.970;2024-03-23T05:30:14;2.53;;;1.73;;
65206;SDS011;58477;48.072;11.970;2024-03-23T05:32:39;2.45;;;1.83;;
65206;SDS011;58477;48.072;11.970;2024-03-23T05:35:07;1.95;;;1.70;;
65206;SDS011;58477;48.072;11.970;2024-03-23T05:37:33;3.78;;;2.10;;
65206;SDS011;58477;48.072;11.970;2024-03-23T05:40:02;2.05;;;1.85;;
65206;SDS011;58477;48.072;11.970;2024-03-23T05:42:28;2.05;;;1.85;;
65206;SDS011;58477;48.072;11.970;2024-03-23T05:44:54;5.63;;;1.70;;
65206;SDS011;58477;48.072;11.970;2024-03-23T05:47:20;1.65;;;1.55;;
65206;SDS011;58477;48.072;11.970;2024-03-23T05:49:48;1.50;;;1.40;;
65206;SDS011;58477;48.072;11.970;2024-03-23T05:52:13;3.63;;;1.67;;
65206;SDS011;58477;48.072;11.970;2024-03-23T05:54:39;2.13;;;1.55;;
65206;SDS011;58477;48.072;11.970;2024-03-23T05:57:04;3.13;;;1.30;;
65206;SDS011;58477;48.072;11.970;2024-03-23T05:59:32;1.38;;;1.25;;
65206;SDS011;58477;48.072;11.970;2024-03-23T06:01:58;2.10;;;1.42;;
65206;SDS011;58477;48.072;11.970;2024-03-23T06:04:23;1.73;;;1.27;;
65206;SDS011;58477;48.072;11.970;2024-03-23T06:06:49;1.83;;;1.38;;
65206;SDS011;58477;48.072;11.970;2024-03-23T06:09:17;3.55;;;1.50;;
65206;SDS011;58477;48.072;11.970;2024-03-23T06:11:42;4.13;;;1.30;;
65206;SDS011;58477;48.072;11.970;2024-03-23T06:14:08;1.65;;;1.40;;
65206;SDS011;58477;48.072;11.970;2024-03-23T06:16:33;1.40;;;1.17;;
65206;SDS011;58477;48.072;11.970;2024-03-23T06:18:58;1.23;;;1.13;;
65206;SDS011;58477;48.072;11.970;2024-03-23T06:21:25;3.10;;;1.30;;
65206;SDS011;58477;48.072;11.970;2024-03-23T06:23:54;1.50;;;1.30;;
65206;SDS011;58477;48.072;11.970;2024-03-23T06:26:19;2.75;;;1.20;;
65206;SDS011;58477;48.072;11.970;2024-03-23T06:28:45;2.38;;;1.55;;
65206;SDS011;58477;48.072;11.970;2024-03-23T06:31:11;5.72;;;2.53;;
65206;SDS011;58477;48.072;11.970;2024-03-23T06:33:37;2.17;;;1.50;;
65206;SDS011;58477;48.072;11.970;2024-03-23T06:36:03;1.40;;;1.30;;
65206;SDS011;58477;48.072;11.970;2024-03-23T06:38:29;1.70;;;1.60;;
65206;SDS011;58477;48.072;11.970;2024-03-23T06:40:55;3.45;;;1.80;;
65206;SDS011;58477;48.072;11.970;2024-03-23T06:43:21;2.17;;;1.30;;
65206;SDS011;58477;48.072;11.970;2024-03-23T06:45:53;2.65;;;1.70;;
65206;SDS011;58477;48.072;11.970;2024-03-23T06:48:19;1.20;;;1.10;;
65206;SDS011;58477;48.072;11.970;2024-03-23T06:50:45;5.32;;;1.42;;
65206;SDS011;58477;48.072;11.970;2024-03-23T06:53:11;1.55;;;1.45;;
65206;SDS011;58477;48.072;11.970;2024-03-23T06:55:37;2.08;;;1.60;;
65206;SDS011;58477;48.072;11.970;2024-03-23T06:58:02;1.85;;;1.63;;
65206;SDS011;58477;48.072;11.970;2024-03-23T07:00:29;1.60;;;1.20;;
65206;SDS011;58477;48.072;11.970;2024-03-23T07:02:54;1.67;;;1.50;;
65206;SDS011;58477;48.072;11.970;2024-03-23T07:05:20;2.60;;;1.40;;
65206;SDS011;58477;48.072;11.970;2024-03-23T07:07:45;2.35;;;1.35;;
65206;SDS011;58477;48.072;11.970;2024-03-23T07:10:11;2.13;;;1.63;;
65206;SDS011;58477;48.072;11.970;2024-03-23T07:12:36;1.60;;;1.50;;
65206;SDS011;58477;48.072;11.970;2024-03-23T07:15:03;5.85;;;1.92;;
65206;SDS011;58477;48.072;11.970;2024-03-23T07:17:29;2.50;;;1.60;;
65206;SDS011;58477;48.072;11.970;2024-03-23T07:19:57;2.30;;;1.80;;
65206;SDS011;58477;48.072;11.970;2024-03-23T07:22:22;3.83;;;1.60;;
65206;SDS011;58477;48.072;11.970;2024-03-23T07:24:49;1.83;;;1.48;;
65206;SDS011;58477;48.072;11.970;2024-03-23T07:27:14;2.33;;;1.60;;
65206;SDS011;58477;48.072;11.970;2024-03-23T07:29:40;5.22;;;1.70;;
65206;SDS011;58477;48.072;11.970;2024-03-23T07:32:05;1.85;;;1.58;;
65206;SDS011;58477;48.072;11.970;2024-03-23T07:34:31;2.35;;;1.58;;
65206;SDS011;58477;48.072;11.970;2024-03-23T07:36:56;1.95;;;1.70;;
65206;SDS011;58477;48.072;11.970;2024-03-23T07:39:22;1.70;;;1.40;;
65206;SDS011;58477;48.072;11.970;2024-03-23T07:41:47;3.85;;;2.50;;
65206;SDS011;58477;48.072;11.970;2024-03-23T07:44:12;1.58;;;1.35;;
65206;SDS011;58477;48.072;11.970;2024-03-23T07:46:38;2.22;;;1.42;;
65206;SDS011;58477;48.072;11.970;2024-03-23T07:49:06;1.73;;;1.50;;
65206;SDS011;58477;48.072;11.970;2024-03-23T07:51:32;1.38;;;1.27;;
65206;SDS011;58477;48.072;11.970;2024-03-23T07:53:58;2.53;;;1.27;;
65206;SDS011;58477;48.072;11.970;2024-03-23T07:56:24;1.77;;;1.20;;
65206;SDS011;58477;48.072;11.970;2024-03-23T07:58:49;2.80;;;1.25;;
65206;SDS011;58477;48.072;11.970;2024-03-23T08:01:15;0.90;;;0.90;;
65206;SDS011;58477;48.072;11.970;2024-03-23T08:03:42;1.35;;;0.90;;
65206;SDS011;58477;48.072;11.970;2024-03-23T08:06:12;2.65;;;0.90;;
65206;SDS011;58477;48.072;11.970;2024-03-23T08:08:39;1.98;;;0.90;;
65206;SDS011;58477;48.072;11.970;2024-03-23T08:11:06;1.20;;;1.10;;
65206;SDS011;58477;48.072;11.970;2024-03-23T08:13:31;1.30;;;1.13;;
65206;SDS011;58477;48.072;11.970;2024-03-23T08:15:58;1.98;;;1.30;;
65206;SDS011;58477;48.072;11.970;2024-03-23T08:18:23;1.45;;;1.30;;
65206;SDS011;58477;48.072;11.970;2024-03-23T08:20:56;4.32;;;1.13;;
65206;SDS011;58477;48.072;11.970;2024-03-23T08:23:28;1.48;;;0.93;;
65206;SDS011;58477;48.072;11.970;2024-03-23T08:25:58;1.33;;;1.17;;
65206;SDS011;58477;48.072;11.970;2024-03-23T08:28:25;0.88;;;0.88;;
65206;SDS011;58477;48.072;11.970;2024-03-23T08:30:50;1.40;;;0.90;;
65206;SDS011;58477;48.072;11.970;2024-03-23T08:33:17;0.70;;;0.70;;
65206;SDS011;58477;48.072;11.970;2024-03-23T08:35:43;1.45;;;1.10;;
65206;SDS011;58477;48.072;11.970;2024-03-23T08:38:19;1.05;;;0.95;;
65206;SDS011;58477;48.072;11.970;2024-03-23T08:40:44;1.65;;;1.55;;
65206;SDS011;58477;48.072;11.970;2024-03-23T08:43:10;0.95;;;0.95;;
65206;SDS011;58477;48.072;11.970;2024-03-23T08:45:35;2.05;;;1.30;;
65206;SDS011;58477;48.072;11.970;2024-03-23T08:48:00;1.30;;;1.10;;
65206;SDS011;58477;48.072;11.970;2024-03-23T08:50:26;2.22;;;1.63;;
65206;SDS011;58477;48.072;11.970;2024-03-23T08:52:51;1.42;;;1.20;;
65206;SDS011;58477;48.072;11.970;2024-03-23T08:55:17;3.33;;;1.40;;
65206;SDS011;58477;48.072;11.970;2024-03-23T08:57:42;3.58;;;1.70;;
65206;SDS011;58477;48.072;11.970;2024-03-23T09:00:08;1.55;;;1.20;;
65206;SDS011;58477;48.072;11.970;2024-03-23T09:02:34;1.90;;;1.35;;
65206;SDS011;58477;48.072;11.970;2024-03-23T09:05:00;1.52;;;1.40;;
65206;SDS011;58477;48.072;11.970;2024-03-23T09:07:29;2.08;;;1.10;;
65206;SDS011;58477;48.072;11.970;2024-03-23T09:09:55;1.92;;;1.58;;
65206;SDS011;58477;48.072;11.970;2024-03-23T09:12:21;2.40;;;1.60;;
65206;SDS011;58477;48.072;11.970;2024-03-23T09:14:46;2.22;;;1.52;;
65206;SDS011;58477;48.072;11.970;2024-03-23T09:17:12;1.63;;;1.52;;
65206;SDS011;58477;48.072;11.970;2024-03-23T09:19:38;3.95;;;1.30;;
65206;SDS011;58477;48.072;11.970;2024-03-23T09:22:04;1.10;;;1.00;;
65206;SDS011;58477;48.072;11.970;2024-03-23T09:24:30;1.90;;;1.55;;
65206;SDS011;58477;48.072;11.970;2024-03-23T09:26:57;1.33;;;1.23;;
65206;SDS011;58477;48.072;11.970;2024-03-23T09:29:22;1.50;;;1.25;;
65206;SDS011;58477;48.072;11.970;2024-03-23T09:31:48;1.52;;;1.42;;
65206;SDS011;58477;48.072;11.970;2024-03-23T09:34:13;1.95;;;1.35;;
65206;SDS011;58477;48.072;11.970;2024-03-23T09:36:39;3.90;;;1.92;;
65206;SDS011;58477;48.072;11.970;2024-03-23T09:39:04;2.17;;;1.52;;
65206;SDS011;58477;48.072;11.970;2024-03-23T09:41:30;2.03;;;1.60;;
65206;SDS011;58477;48.072;11.970;2024-03-23T09:43:56;2.13;;;1.92;;
65206;SDS011;58477;48.072;11.970;2024-03-23T09:46:21;6.28;;;1.10;;
65206;SDS011;58477;48.072;11.970;2024-03-23T09:48:48;1.70;;;1.58;;
65206;SDS011;58477;48.072;11.970;2024-03-23T09:51:13;2.00;;;1.50;;
65206;SDS011;58477;48.072;11.970;2024-03-23T09:53:39;1.40;;;1.30;;
65206;SDS011;58477;48.072;11.970;2024-03-23T09:56:04;1.40;;;1.10;;
65206;SDS011;58477;48.072;11.970;2024-03-23T09:58:30;1.60;;;1.50;;
65206;SDS011;58477;48.072;11.970;2024-03-23T10:00:57;1.80;;;1.70;;
65206;SDS011;58477;48.072;11.970;2024-03-23T10:03:23;1.08;;;1.05;;
65206;SDS011;58477;48.072;11.970;2024-03-23T10:05:58;1.35;;;1.20;;
65206;SDS011;58477;48.072;11.970;2024-03-23T10:08:25;1.50;;;1.25;;
65206;SDS011;58477;48.072;11.970;2024-03-23T10:10:51;1.80;;;1.60;;
65206;SDS011;58477;48.072;11.970;2024-03-23T10:13:28;1.67;;;1.08;;
65206;SDS011;58477;48.072;11.970;2024-03-23T10:15:57;2.72;;;1.40;;
65206;SDS011;58477;48.072;11.970;2024-03-23T10:18:24;1.20;;;1.10;;
65206;SDS011;58477;48.072;11.970;2024-03-23T10:23:30;1.08;;;1.08;;
65206;SDS011;58477;48.072;11.970;2024-03-23T10:26:11;0.88;;;0.55;;
65206;SDS011;58477;48.072;11.970;2024-03-23T10:28:50;0.57;;;0.57;;
65206;SDS011;58477;48.072;11.970;2024-03-23T10:31:24;0.75;;;0.75;;
65206;SDS011;58477;48.072;11.970;2024-03-23T10:33:50;3.10;;;0.90;;
65206;SDS011;58477;48.072;11.970;2024-03-23T10:36:15;0.68;;;0.68;;
65206;SDS011;58477;48.072;11.970;2024-03-23T10:38:43;0.52;;;0.52;;
65206;SDS011;58477;48.072;11.970;2024-03-23T10:41:09;0.30;;;0.30;;
65206;SDS011;58477;48.072;11.970;2024-03-23T10:43:38;0.43;;;0.43;;
65206;SDS011;58477;48.072;11.970;2024-03-23T10:46:04;0.80;;;0.50;;
65206;SDS011;58477;48.072;11.970;2024-03-23T10:48:31;0.45;;;0.45;;
65206;SDS011;58477;48.072;11.970;2024-03-23T10:50:57;0.38;;;0.38;;
65206;SDS011;58477;48.072;11.970;2024-03-23T10:53:25;0.60;;;0.60;;
65206;SDS011;58477;48.072;11.970;2024-03-23T10:55:52;0.75;;;0.70;;
65206;SDS011;58477;48.072;11.970;2024-03-23T10:58:19;0.47;;;0.47;;
65206;SDS011;58477;48.072;11.970;2024-03-23T11:00:49;0.45;;;0.43;;
65206;SDS011;58477;48.072;11.970;2024-03-23T11:03:34;0.80;;;0.80;;
65206;SDS011;58477;48.072;11.970;2024-03-23T11:06:04;1.55;;;0.88;;
65206;SDS011;58477;48.072;11.970;2024-03-23T11:08:34;0.98;;;0.88;;
65206;SDS011;58477;48.072;11.970;2024-03-23T11:13:38;0.60;;;0.60;;
65206;SDS011;58477;48.072;11.970;2024-03-23T11:16:16;0.47;;;0.47;;
65206;SDS011;58477;48.072;11.970;2024-03-23T11:18:42;0.90;;;0.68;;
65206;SDS011;58477;48.072;11.970;2024-03-23T11:21:10;0.40;;;0.40;;
65206;SDS011;58477;48.072;11.970;2024-03-23T11:23:36;1.08;;;0.85;;
65206;SDS011;58477;48.072;11.970;2024-03-23T11:26:01;0.95;;;0.70;;
65206;SDS011;58477;48.072;11.970;2024-03-23T11:28:27;0.55;;;0.40;;
65206;SDS011;58477;48.072;11.970;2024-03-23T11:30:53;0.52;;;0.52;;
65206;SDS011;58477;48.072;11.970;2024-03-23T11:33:18;0.85;;;0.70;;
65206;SDS011;58477;48.072;11.970;2024-03-23T11:35:44;0.50;;;0.50;;
65206;SDS011;58477;48.072;11.970;2024-03-23T11:38:13;0.95;;;0.43;;
65206;SDS011;58477;48.072;11.970;2024-03-23T11:40:46;1.50;;;0.90;;
65206;SDS011;58477;48.072;11.970;2024-03-23T11:43:13;0.90;;;0.90;;
65206;SDS011;58477;48.072;11.970;2024-03-23T11:45:40;1.95;;;0.50;;
65206;SDS011;58477;48.072;11.970;2024-03-23T11:48:13;2.95;;;0.98;;
65206;SDS011;58477;48.072;11.970;2024-03-23T11:50:40;0.95;;;0.50;;
65206;SDS011;58477;48.072;11.970;2024-03-23T11:53:12;0.77;;;0.77;;
65206;SDS011;58477;48.072;11.970;2024-03-23T11:55:45;0.30;;;0.30;;
65206;SDS011;58477;48.072;11.970;2024-03-23T11:58:13;0.50;;;0.50;;
65206;SDS011;58477;48.072;11.970;2024-03-23T12:00:39;1.02;;;0.60;;
65206;SDS011;58477;48.072;11.970;2024-03-23T12:03:05;2.30;;;0.93;;
65206;SDS011;58477;48.072;11.970;2024-03-23T12:05:31;2.08;;;0.60;;
65206;SDS011;58477;48.072;11.970;2024-03-23T12:10:53;3.00;;;1.30;;
65206;SDS011;58477;48.072;11.970;2024-03-23T12:13:29;0.75;;;0.75;;
65206;SDS011;58477;48.072;11.970;2024-03-23T12:15:54;0.75;;;0.75;;
65206;SDS011;58477;48.072;11.970;2024-03-23T12:18:23;0.60;;;0.60;;
65206;SDS011;58477;48.072;11.970;2024-03-23T12:20:49;0.40;;;0.40;;
65206;SDS011;58477;48.072;11.970;2024-03-23T12:23:15;0.43;;;0.43;;
65206;SDS011;58477;48.072;11.970;2024-03-23T12:25:42;0.80;;;0.80;;
65206;SDS011;58477;48.072;11.970;2024-03-23T12:28:08;0.50;;;0.50;;
65206;SDS011;58477;48.072;11.970;2024-03-23T12:30:34;0.60;;;0.50;;
65206;SDS011;58477;48.072;11.970;2024-03-23T12:33:00;1.15;;;1.05;;
65206;SDS011;58477;48.072;11.970;2024-03-23T12:35:26;1.30;;;1.10;;
65206;SDS011;58477;48.072;11.970;2024-03-23T12:37:52;0.95;;;0.82;;
65206;SDS011;58477;48.072;11.970;2024-03-23T12:40:17;3.78;;;1.10;;
65206;SDS011;58477;48.072;11.970;2024-03-23T12:42:43;4.25;;;1.08;;
65206;SDS011;58477;48.072;11.970;2024-03-23T12:45:08;4.22;;;1.30;;
65206;SDS011;58477;48.072;11.970;2024-03-23T12:47:34;1.63;;;1.50;;
65206;SDS011;58477;48.072;11.970;2024-03-23T12:49:59;1.80;;;1.25;;
65206;SDS011;58477;48.072;11.970;2024-03-23T12:52:25;4.03;;;1.40;;
65206;SDS011;58477;48.072;11.970;2024-03-23T12:54:54;1.38;;;1.25;;
65206;SDS011;58477;48.072;11.970;2024-03-23T12:57:21;3.05;;;1.60;;
65206;SDS011;58477;48.072;11.970;2024-03-23T12:59:50;2.42;;;1.50;;
65206;SDS011;58477;48.072;11.970;2024-03-23T13:02:17;1.60;;;1.35;;
65206;SDS011;58477;48.072;11.970;2024-03-23T13:04:44;1.65;;;0.77;;
65206;SDS011;58477;48.072;11.970;2024-03-23T13:07:10;2.75;;;1.35;;
65206;SDS011;58477;48.072;11.970;2024-03-23T13:09:36;2.67;;;1.10;;
65206;SDS011;58477;48.072;11.970;2024-03-23T13:12:01;2.00;;;1.17;;
65206;SDS011;58477;48.072;11.970;2024-03-23T13:14:27;2.13;;;1.70;;
65206;SDS011;58477;48.072;11.970;2024-03-23T13:16:53;5.15;;;1.50;;
65206;SDS011;58477;48.072;11.970;2024-03-23T13:19:18;1.38;;;1.27;;
65206;SDS011;58477;48.072;11.970;2024-03-23T13:21:46;1.67;;;1.40;;
65206;SDS011;58477;48.072;11.970;2024-03-23T13:24:11;1.77;;;1.38;;
65206;SDS011;58477;48.072;11.970;2024-03-23T13:26:36;4.72;;;1.98;;
65206;SDS011;58477;48.072;11.970;2024-03-23T13:29:02;1.17;;;1.08;;
65206;SDS011;58477;48.072;11.970;2024-03-23T13:31:27;2.20;;;1.30;;
65206;SDS011;58477;48.072;11.970;2024-03-23T13:33:53;1.33;;;1.23;;
65206;SDS011;58477;48.072;11.970;2024-03-23T13:36:18;1.85;;;1.50;;
65206;SDS011;58477;48.072;11.970;2024-03-23T13:38:43;3.10;;;1.70;;
65206;SDS011;58477;48.072;11.970;2024-03-23T13:41:09;1.98;;;1.45;;
65206;SDS011;58477;48.072;11.970;2024-03-23T13:43:37;3.28;;;1.55;;
65206;SDS011;58477;48.072;11.970;2024-03-23T13:46:03;2.28;;;1.65;;
65206;SDS011;58477;48.072;11.970;2024-03-23T13:48:28;5.50;;;1.73;;
65206;SDS011;58477;48.072;11.970;2024-03-23T13:50:57;8.68;;;1.95;;
65206;SDS011;58477;48.072;11.970;2024-03-23T13:53:26;3.08;;;1.83;;
65206;SDS011;58477;48.072;11.970;2024-03-23T13:55:52;1.42;;;1.25;;
65206;SDS011;58477;48.072;11.970;2024-03-23T13:58:18;6.35;;;2.05;;
65206;SDS011;58477;48.072;11.970;2024-03-23T14:00:43;2.00;;;1.23;;
65206;SDS011;58477;48.072;11.970;2024-03-23T14:03:09;3.08;;;1.63;;
65206;SDS011;58477;48.072;11.970;2024-03-23T14:05:35;2.20;;;1.38;;
65206;SDS011;58477;48.072;11.970;2024-03-23T14:08:03;3.33;;;1.58;;
65206;SDS011;58477;48.072;11.970;2024-03-23T14:10:40;3.10;;;1.48;;
65206;SDS011;58477;48.072;11.970;2024-03-23T14:13:06;2.40;;;1.20;;
65206;SDS011;58477;48.072;11.970;2024-03-23T14:15:31;1.77;;;1.23;;
65206;SDS011;58477;48.072;11.970;2024-03-23T14:17:57;2.15;;;1.33;;
65206;SDS011;58477;48.072;11.970;2024-03-23T14:20:23;4.40;;;1.60;;
65206;SDS011;58477;48.072;11.970;2024-03-23T14:22:49;0.98;;;0.90;;
65206;SDS011;58477;48.072;11.970;2024-03-23T14:25:15;1.60;;;1.00;;
65206;SDS011;58477;48.072;11.970;2024-03-23T14:27:41;1.38;;;0.85;;
65206;SDS011;58477;48.072;11.970;2024-03-23T14:30:08;3.10;;;1.42;;
65206;SDS011;58477;48.072;11.970;2024-03-23T14:32:34;1.85;;;1.27;;
65206;SDS011;58477;48.072;11.970;2024-03-23T14:35:00;0.70;;;0.70;;
65206;SDS011;58477;48.072;11.970;2024-03-23T14:37:26;3.35;;;1.52;;
65206;SDS011;58477;48.072;11.970;2024-03-23T14:39:52;1.92;;;1.83;;
65206;SDS011;58477;48.072;11.970;2024-03-23T14:42:17;3.22;;;1.75;;
65206;SDS011;58477;48.072;11.970;2024-03-23T14:44:42;1.42;;;1.33;;
65206;SDS011;58477;48.072;11.970;2024-03-23T14:47:08;3.28;;;1.38;;
65206;SDS011;58477;48.072;11.970;2024-03-23T14:49:33;1.58;;;1.38;;
65206;SDS011;58477;48.072;11.970;2024-03-23T14:51:59;2.08;;;1.27;;
65206;SDS011;58477;48.072;11.970;2024-03-23T14:54:24;1.23;;;1.15;;
65206;SDS011;58477;48.072;11.970;2024-03-23T14:56:49;2.63;;;1.70;;
65206;SDS011;58477;48.072;11.970;2024-03-23T14:59:15;4.78;;;1.77;;
65206;SDS011;58477;48.072;11.970;2024-03-23T15:01:40;2.15;;;1.80;;
65206;SDS011;58477;48.072;11.970;2024-03-23T15:04:06;2.22;;;1.25;;
65206;SDS011;58477;48.072;11.970;2024-03-23T15:06:32;1.95;;;1.48;;
65206;SDS011;58477;48.072;11.970;2024-03-23T15:08:58;2.83;;;1.75;;
65206;SDS011;58477;48.072;11.970;2024-03-23T15:11:24;1.45;;;1.00;;
65206;SDS011;58477;48.072;11.970;2024-03-23T15:13:49;6.80;;;2.17;;
65206;SDS011;58477;48.072;11.970;2024-03-23T15:16:18;2.50;;;1.38;;
65206;SDS011;58477;48.072;11.970;2024-03-23T15:18:45;7.78;;;2.40;;
65206;SDS011;58477;48.072;11.970;2024-03-23T15:21:11;6.15;;;1.85;;
65206;SDS011;58477;48.072;11.970;2024-03-23T15:23:37;4.22;;;1.63;;
65206;SDS011;58477;48.072;11.970;2024-03-23T15:26:03;5.55;;;2.60;;
65206;SDS011;58477;48.072;11.970;2024-03-23T15:28:31;3.15;;;2.22;;